首页
METAR-TAF:

METAR-TAF

机场 :

Weipa, 澳大利亚

纬度: 12-40-43S, 经度: 141-55-31E, 海拔: 19米

当前天气观测

该预报发布于49分钟前的08:00 UTC
风速6节,风向西
温度 31°C
湿度 59%
气压 1007 hPa
能见度10公里或以上

METAR: YBWP 170800Z AUTO 26006KT 9999 // NCD 31/22 Q1007

时间: 18:49 (08:49 UTC)


TAF: 丢失

超过4000个机场的气象观测和天气预报(METAR&TAF报告)。

可查询的气象台以黄色和红色小点在地图上表示。

将鼠标移到小点上方,可查看气象台名称。

然后点击查看天气观测和预报。

如需切换地图:点击带黑十字的绿色按钮放大地图;点击带横线的绿色按钮缩小地图;或者点击绿色箭头查看邻近地区的地图。


METAR-TAF: